createdAt,value
2018-08-09T00:00:01.352Z,71.83
2018-08-09T00:00:32.508Z,71.28
2018-08-09T00:01:03.639Z,71.30
2018-08-09T00:01:34.771Z,71.27
2018-08-09T00:02:05.966Z,71.85
2018-08-09T00:02:37.157Z,71.33
2018-08-09T00:03:08.334Z,71.33
2018-08-09T00:03:39.555Z,70.96
2018-08-09T00:04:10.714Z,71.91
2018-08-09T00:04:41.897Z,71.45
2018-08-09T00:05:13.048Z,71.09
2018-08-09T00:05:44.243Z,71.65
2018-08-09T00:06:15.379Z,71.20
2018-08-09T00:06:46.556Z,72.19
2018-08-09T00:07:17.720Z,71.87
2018-08-09T00:07:48.910Z,71.80
2018-08-09T00:08:20.046Z,72.19
2018-08-09T00:08:51.278Z,71.85
2018-08-09T00:09:22.515Z,71.78
2018-08-09T00:09:53.711Z,71.90
2018-08-09T00:10:24.903Z,71.87
2018-08-09T00:10:56.079Z,72.01
2018-08-09T00:11:27.279Z,72.53
2018-08-09T00:11:58.404Z,72.13
2018-08-09T00:12:29.639Z,72.50
2018-08-09T00:13:00.834Z,71.83
2018-08-09T00:13:31.946Z,72.00
2018-08-09T00:14:03.119Z,71.98
2018-08-09T00:14:34.255Z,72.28
2018-08-09T00:15:05.379Z,71.88
2018-08-09T00:15:36.492Z,71.81
2018-08-09T00:16:07.668Z,71.93
2018-08-09T00:16:38.854Z,71.90
2018-08-09T00:17:10.001Z,71.93
2018-08-09T00:17:41.165Z,71.82
2018-08-09T00:18:12.426Z,72.27
2018-08-09T00:18:43.579Z,71.86
2018-08-09T00:19:14.695Z,71.68
2018-08-09T00:19:45.868Z,72.60
2018-08-09T00:20:17.040Z,72.35
2018-08-09T00:20:48.249Z,70.88
2018-08-09T00:21:19.387Z,71.36
2018-08-09T00:21:50.559Z,71.42
2018-08-09T00:22:21.808Z,72.46
2018-08-09T00:22:52.941Z,72.18
2018-08-09T00:23:24.136Z,70.84
2018-08-09T00:23:55.364Z,72.27
2018-08-09T00:24:26.469Z,72.19
2018-08-09T00:24:57.639Z,72.29
2018-08-09T00:25:28.820Z,73.00
2018-08-09T00:26:00.064Z,72.08
2018-08-09T00:26:31.198Z,72.14
2018-08-09T00:27:02.374Z,72.33
2018-08-09T00:27:33.505Z,72.22
2018-08-09T00:28:04.717Z,72.40
2018-08-09T00:28:35.843Z,73.18
2018-08-09T00:29:07.012Z,72.33
2018-08-09T00:29:38.145Z,70.29
2018-08-09T00:30:09.325Z,70.62
2018-08-09T00:30:40.507Z,71.43
2018-08-09T00:31:11.775Z,72.22
2018-08-09T00:31:43.007Z,71.34
2018-08-09T00:32:14.197Z,72.58
2018-08-09T00:32:45.384Z,72.11
2018-08-09T00:33:16.557Z,72.93
2018-08-09T00:33:47.677Z,71.77
2018-08-09T00:34:18.857Z,71.64
2018-08-09T00:34:50.099Z,71.98
2018-08-09T00:35:21.338Z,72.45
2018-08-09T00:35:52.576Z,71.66
2018-08-09T00:36:23.716Z,71.71
2018-08-09T00:36:54.846Z,72.29
2018-08-09T00:37:25.966Z,72.02
2018-08-09T00:37:57.088Z,71.48
2018-08-09T00:38:28.208Z,72.17
2018-08-09T00:38:59.335Z,71.65
2018-08-09T00:39:30.499Z,72.20
2018-08-09T00:40:01.617Z,72.35
2018-08-09T00:40:32.792Z,71.32
2018-08-09T00:41:03.927Z,72.24
2018-08-09T00:41:35.052Z,72.00
2018-08-09T00:42:06.294Z,72.45
2018-08-09T00:42:37.587Z,71.84
2018-08-09T00:43:08.768Z,71.70
2018-08-09T00:43:39.909Z,70.87
2018-08-09T00:44:11.118Z,71.94
2018-08-09T00:44:42.354Z,72.29
2018-08-09T00:45:13.537Z,71.32
2018-08-09T00:45:44.676Z,71.57
2018-08-09T00:46:15.870Z,71.68
2018-08-09T00:46:47.062Z,71.88
2018-08-09T00:47:18.187Z,72.15
2018-08-09T00:47:49.373Z,70.75
2018-08-09T00:48:20.554Z,70.80
2018-08-09T00:48:51.731Z,69.01
2018-08-09T00:49:22.994Z,70.84
2018-08-09T00:49:54.228Z,69.79
2018-08-09T00:50:25.416Z,70.21
2018-08-09T00:50:56.605Z,69.92
2018-08-09T00:51:27.729Z,71.00
2018-08-09T00:51:58.906Z,70.37
2018-08-09T00:52:30.068Z,71.34
2018-08-09T00:53:01.237Z,71.07
2018-08-09T00:53:32.477Z,71.28
2018-08-09T00:54:03.612Z,70.49
2018-08-09T00:54:34.739Z,70.73
2018-08-09T00:55:06.035Z,71.41
2018-08-09T00:55:37.185Z,71.05
2018-08-09T00:56:08.394Z,70.54
2018-08-09T00:56:39.578Z,70.58
2018-08-09T00:57:10.708Z,70.69
2018-08-09T00:57:41.859Z,70.56
2018-08-09T00:58:13.082Z,70.81
2018-08-09T00:58:44.333Z,70.63
2018-08-09T00:59:15.622Z,71.83
2018-08-09T00:59:46.820Z,71.79
2018-08-09T01:00:17.998Z,71.72
2018-08-09T01:00:49.132Z,71.62
2018-08-09T01:01:20.313Z,72.17
2018-08-09T01:01:51.484Z,72.42
2018-08-09T01:02:22.664Z,72.73
2018-08-09T01:02:53.839Z,71.87
2018-08-09T01:03:25.051Z,71.56
2018-08-09T01:03:56.233Z,71.73
2018-08-09T01:04:27.382Z,71.63
2018-08-09T01:04:58.519Z,71.24
2018-08-09T01:05:29.655Z,72.42
2018-08-09T01:06:00.821Z,72.42
2018-08-09T01:06:31.966Z,71.71
2018-08-09T01:07:03.136Z,72.58
2018-08-09T01:07:34.269Z,71.81
2018-08-09T01:08:05.439Z,72.42
2018-08-09T01:08:36.568Z,72.41
2018-08-09T01:09:07.755Z,72.01
2018-08-09T01:09:38.931Z,72.42
2018-08-09T01:10:10.091Z,72.05
2018-08-09T01:10:41.272Z,72.07
2018-08-09T01:11:12.448Z,72.16
2018-08-09T01:11:43.631Z,72.14
2018-08-09T01:12:14.772Z,71.69
2018-08-09T01:12:45.919Z,71.96
2018-08-09T01:13:17.089Z,72.61
2018-08-09T01:13:48.271Z,72.59
2018-08-09T01:14:19.453Z,72.02
2018-08-09T01:14:50.671Z,73.17
2018-08-09T01:15:21.870Z,72.29
2018-08-09T01:15:53.004Z,72.54
2018-08-09T01:16:24.184Z,72.45
2018-08-09T01:16:55.366Z,72.55
2018-08-09T01:17:26.592Z,71.35
2018-08-09T01:17:57.766Z,72.47
2018-08-09T01:18:28.999Z,72.02
2018-08-09T01:19:00.176Z,72.73
2018-08-09T01:19:31.310Z,72.60
2018-08-09T01:20:02.486Z,72.45
2018-08-09T01:20:33.630Z,73.21
2018-08-09T01:21:04.777Z,72.51
2018-08-09T01:21:36.061Z,72.96
2018-08-09T01:22:07.220Z,72.71
2018-08-09T01:22:38.452Z,71.07
2018-08-09T01:23:09.622Z,69.54
2018-08-09T01:23:40.766Z,71.47
2018-08-09T01:24:12.002Z,72.59
2018-08-09T01:24:43.136Z,73.19
2018-08-09T01:25:14.319Z,72.75
2018-08-09T01:25:45.440Z,72.59
2018-08-09T01:26:16.569Z,72.47
2018-08-09T01:26:47.683Z,72.91
2018-08-09T01:27:18.811Z,73.16
2018-08-09T01:27:50.089Z,73.82
2018-08-09T01:28:21.282Z,72.78
2018-08-09T01:28:52.432Z,72.21
2018-08-09T01:29:23.554Z,72.54
2018-08-09T01:29:54.833Z,71.69
2018-08-09T01:30:26.046Z,72.67
2018-08-09T01:30:57.237Z,72.62
2018-08-09T01:31:28.364Z,73.46
2018-08-09T01:32:00.337Z,72.73
2018-08-09T01:32:31.497Z,73.00
2018-08-09T01:33:02.687Z,73.22
2018-08-09T01:33:33.868Z,73.47
2018-08-09T01:34:05.079Z,73.36
2018-08-09T01:34:36.258Z,72.82
2018-08-09T01:35:07.440Z,73.47
2018-08-09T01:35:38.622Z,72.64
2018-08-09T01:36:09.815Z,72.60
2018-08-09T01:36:41.024Z,73.08
2018-08-09T01:37:12.265Z,73.10
2018-08-09T01:37:43.460Z,73.29
2018-08-09T01:38:14.654Z,73.78
2018-08-09T01:38:45.785Z,73.88
2018-08-09T01:39:16.942Z,73.71
2018-08-09T01:39:48.121Z,73.73
2018-08-09T01:40:19.237Z,74.59
2018-08-09T01:40:50.458Z,74.91
2018-08-09T01:41:21.640Z,74.80
2018-08-09T01:41:52.898Z,74.31
2018-08-09T01:42:24.028Z,75.04
2018-08-09T01:42:55.205Z,75.16
2018-08-09T01:43:26.379Z,75.29
2018-08-09T01:43:57.511Z,74.38
2018-08-09T01:44:28.775Z,74.93
2018-08-09T01:44:59.900Z,74.07
2018-08-09T01:45:31.031Z,74.61
2018-08-09T01:46:02.261Z,74.45
2018-08-09T01:46:33.432Z,74.42
2018-08-09T01:47:04.545Z,74.79
2018-08-09T01:47:35.736Z,74.72
2018-08-09T01:48:06.912Z,74.74
2018-08-09T01:48:38.053Z,73.52
2018-08-09T01:49:09.225Z,73.46
2018-08-09T01:49:41.398Z,73.91
2018-08-09T01:50:12.581Z,73.81
2018-08-09T01:50:43.712Z,73.88
2018-08-09T01:51:14.937Z,74.00
2018-08-09T01:51:46.129Z,73.87
2018-08-09T01:52:17.312Z,74.67
2018-08-09T01:52:48.502Z,75.11
2018-08-09T01:53:19.697Z,75.04
2018-08-09T01:53:50.822Z,74.81
2018-08-09T01:54:21.942Z,74.86
2018-08-09T01:54:53.113Z,74.37
2018-08-09T01:55:24.350Z,73.83
2018-08-09T01:55:55.479Z,74.75
2018-08-09T01:56:26.723Z,74.11
2018-08-09T01:56:57.975Z,74.16
2018-08-09T01:57:29.123Z,74.84
2018-08-09T01:58:00.307Z,74.15
2018-08-09T01:58:31.473Z,75.11
2018-08-09T01:59:02.649Z,75.02
2018-08-09T01:59:33.901Z,74.22
2018-08-09T02:00:05.093Z,75.03
2018-08-09T02:00:36.344Z,75.06
2018-08-09T02:01:07.524Z,75.19
2018-08-09T02:01:38.647Z,74.48
2018-08-09T02:02:09.816Z,75.36
2018-08-09T02:02:40.984Z,75.52
2018-08-09T02:03:12.151Z,75.29
2018-08-09T02:03:43.282Z,75.71
2018-08-09T02:04:14.493Z,75.47
2018-08-09T02:04:45.784Z,75.66
2018-08-09T02:05:16.982Z,75.41
2018-08-09T02:05:48.158Z,75.97
2018-08-09T02:06:19.300Z,75.96
2018-08-09T02:06:50.439Z,75.52
2018-08-09T02:07:21.681Z,75.87
2018-08-09T02:07:52.881Z,75.91
2018-08-09T02:08:23.997Z,75.34
2018-08-09T02:08:55.208Z,75.57
2018-08-09T02:09:26.332Z,75.52
2018-08-09T02:09:57.508Z,75.73
2018-08-09T02:10:28.712Z,75.88
2018-08-09T02:10:59.831Z,76.05
2018-08-09T02:11:30.953Z,76.46
2018-08-09T02:12:02.145Z,75.82
2018-08-09T02:12:33.257Z,76.41
2018-08-09T02:13:04.450Z,75.91
2018-08-09T02:13:35.730Z,75.56
2018-08-09T02:14:06.961Z,76.14
2018-08-09T02:14:38.093Z,75.25
2018-08-09T02:15:09.237Z,74.60
2018-08-09T02:15:40.357Z,74.91
2018-08-09T02:16:11.476Z,75.45
2018-08-09T02:16:42.596Z,75.70
2018-08-09T02:17:13.778Z,75.15
2018-08-09T02:17:44.898Z,75.40
2018-08-09T02:18:16.086Z,75.92
2018-08-09T02:18:47.212Z,75.91
2018-08-09T02:19:18.432Z,76.96
2018-08-09T02:19:49.614Z,77.06
2018-08-09T02:20:20.810Z,76.58
2018-08-09T02:20:51.936Z,76.72
2018-08-09T02:21:24.022Z,77.22
2018-08-09T02:21:55.155Z,76.92
2018-08-09T02:22:26.281Z,77.82
2018-08-09T02:22:57.461Z,77.30
2018-08-09T02:23:28.755Z,78.08
2018-08-09T02:24:00.010Z,77.60
2018-08-09T02:24:31.177Z,77.94
2018-08-09T02:25:02.965Z,77.11
2018-08-09T02:25:34.104Z,76.92
2018-08-09T02:26:05.276Z,77.13
2018-08-09T02:26:36.517Z,77.04
2018-08-09T02:27:07.664Z,76.65
2018-08-09T02:27:38.788Z,76.50
2018-08-09T02:28:09.904Z,76.75
2018-08-09T02:28:41.083Z,77.24
2018-08-09T02:29:12.273Z,77.03
2018-08-09T02:29:43.453Z,76.88
2018-08-09T02:30:14.634Z,77.76
2018-08-09T02:30:45.806Z,76.89
2018-08-09T02:31:16.990Z,77.21
2018-08-09T02:31:48.125Z,77.33
2018-08-09T02:32:19.265Z,76.50
2018-08-09T02:32:50.438Z,76.86
2018-08-09T02:33:21.627Z,77.11
2018-08-09T02:33:52.830Z,76.88
2018-08-09T02:34:24.006Z,76.81
2018-08-09T02:34:55.127Z,76.61
2018-08-09T02:35:26.285Z,76.43
2018-08-09T02:35:57.470Z,76.00
2018-08-09T02:36:28.667Z,76.60
2018-08-09T02:36:59.868Z,77.20
2018-08-09T02:37:30.995Z,76.78
2018-08-09T02:38:02.107Z,76.47
2018-08-09T02:38:33.252Z,76.46
2018-08-09T02:39:04.434Z,76.89
2018-08-09T02:39:35.650Z,76.91
2018-08-09T02:40:06.782Z,77.06
2018-08-09T02:40:37.926Z,77.15
2018-08-09T02:41:09.131Z,76.60
2018-08-09T02:41:40.493Z,77.43
2018-08-09T02:42:11.674Z,77.84
2018-08-09T02:42:42.878Z,76.85
2018-08-09T02:43:14.068Z,77.29
2018-08-09T02:43:45.215Z,76.40
2018-08-09T02:44:16.401Z,77.00
2018-08-09T02:44:47.528Z,76.29
2018-08-09T02:45:18.652Z,76.33
2018-08-09T02:45:49.844Z,76.36
2018-08-09T02:46:21.013Z,77.11
2018-08-09T02:46:52.274Z,77.07
2018-08-09T02:47:23.457Z,76.58
2018-08-09T02:47:54.628Z,77.26
2018-08-09T02:48:25.813Z,77.43
2018-08-09T02:48:57.024Z,77.03
2018-08-09T02:49:28.147Z,77.18
2018-08-09T02:49:59.318Z,77.38
2018-08-09T02:50:30.443Z,77.06
2018-08-09T02:51:01.561Z,77.09
2018-08-09T02:51:32.849Z,77.17
2018-08-09T02:52:04.101Z,77.14
2018-08-09T02:52:35.271Z,77.29
2018-08-09T02:53:06.446Z,77.39
2018-08-09T02:53:37.572Z,77.62
2018-08-09T02:54:08.679Z,77.85
2018-08-09T02:54:39.857Z,76.99
2018-08-09T02:55:11.113Z,77.06
2018-08-09T02:55:42.289Z,76.81
2018-08-09T02:56:13.536Z,78.24
2018-08-09T02:56:44.674Z,77.29
2018-08-09T02:57:15.865Z,77.26
2018-08-09T02:57:47.168Z,77.85
2018-08-09T02:58:18.433Z,77.26
2018-08-09T02:58:49.682Z,78.04
2018-08-09T02:59:20.816Z,77.44
2018-08-09T02:59:51.943Z,77.49
2018-08-09T03:00:23.178Z,77.43
2018-08-09T03:00:54.389Z,78.01
2018-08-09T03:01:25.571Z,77.68
2018-08-09T03:01:56.710Z,78.28
2018-08-09T03:02:27.970Z,77.83
2018-08-09T03:02:59.172Z,78.66
2018-08-09T03:03:30.357Z,77.97
2018-08-09T03:04:01.525Z,78.02
2018-08-09T03:04:32.663Z,77.97
2018-08-09T03:05:03.849Z,77.97
2018-08-09T03:05:35.025Z,78.66
2018-08-09T03:06:06.181Z,78.16
2018-08-09T03:06:37.359Z,77.96
2018-08-09T03:07:08.493Z,77.99
2018-08-09T03:07:39.671Z,78.25
2018-08-09T03:08:10.832Z,77.57
2018-08-09T03:08:42.010Z,77.30
2018-08-09T03:09:13.197Z,77.87
2018-08-09T03:09:44.324Z,77.32
2018-08-09T03:10:15.452Z,77.62
2018-08-09T03:10:46.642Z,78.29
2018-08-09T03:11:17.835Z,78.26
2018-08-09T03:11:48.947Z,78.46
2018-08-09T03:12:20.076Z,79.24
2018-08-09T03:12:51.207Z,78.65
2018-08-09T03:13:22.379Z,78.75
2018-08-09T03:13:53.570Z,78.48
2018-08-09T03:14:24.804Z,78.67
2018-08-09T03:14:56.054Z,79.07
2018-08-09T03:15:27.225Z,78.77
2018-08-09T03:15:58.433Z,78.16
2018-08-09T03:16:29.668Z,77.00
2018-08-09T03:17:00.796Z,76.96
2018-08-09T03:17:32.020Z,77.85
2018-08-09T03:18:03.207Z,77.38
2018-08-09T03:18:34.385Z,77.82
2018-08-09T03:19:05.532Z,77.03
2018-08-09T03:19:36.647Z,76.83
2018-08-09T03:20:07.825Z,76.69
2018-08-09T03:20:39.025Z,77.49
2018-08-09T03:21:10.162Z,77.19
2018-08-09T03:21:41.339Z,77.09
2018-08-09T03:22:12.486Z,77.49
2018-08-09T03:22:43.671Z,77.50
2018-08-09T03:23:14.851Z,77.55
2018-08-09T03:23:46.024Z,77.25
2018-08-09T03:24:17.269Z,77.27
2018-08-09T03:24:48.446Z,77.19
2018-08-09T03:25:19.564Z,76.99
2018-08-09T03:25:50.794Z,77.42
2018-08-09T03:26:21.981Z,77.25
2018-08-09T03:26:53.169Z,77.19
2018-08-09T03:27:24.296Z,76.93
2018-08-09T03:27:55.468Z,77.30
2018-08-09T03:28:26.710Z,76.76
2018-08-09T03:28:57.841Z,77.37
2018-08-09T03:29:29.066Z,76.88
2018-08-09T03:30:00.261Z,76.86
2018-08-09T03:30:31.390Z,77.31
2018-08-09T03:31:02.564Z,77.22
2018-08-09T03:31:33.700Z,76.95
2018-08-09T03:32:04.884Z,77.23
2018-08-09T03:32:36.026Z,77.41
2018-08-09T03:33:07.143Z,77.17
2018-08-09T03:33:38.268Z,76.96
2018-08-09T03:34:09.446Z,76.44
2018-08-09T03:34:40.650Z,76.98
2018-08-09T03:35:11.780Z,76.63
2018-08-09T03:35:42.951Z,76.36
2018-08-09T03:36:14.133Z,76.95
2018-08-09T03:36:45.319Z,76.96
2018-08-09T03:37:16.493Z,76.81
2018-08-09T03:37:47.670Z,76.55
2018-08-09T03:38:18.884Z,77.09
2018-08-09T03:38:50.011Z,76.55
2018-08-09T03:39:21.142Z,76.73
2018-08-09T03:39:52.268Z,76.36
2018-08-09T03:40:23.452Z,77.03
2018-08-09T03:40:54.720Z,76.78
2018-08-09T03:41:25.854Z,76.65
2018-08-09T03:41:57.048Z,76.56
2018-08-09T03:42:28.247Z,76.59
2018-08-09T03:42:59.441Z,76.54
2018-08-09T03:43:30.566Z,77.16
2018-08-09T03:44:01.692Z,77.14
2018-08-09T03:44:32.900Z,77.14
2018-08-09T03:45:04.042Z,76.54
2018-08-09T03:45:35.169Z,77.16
2018-08-09T03:46:06.369Z,76.70
2018-08-09T03:46:37.543Z,76.76
2018-08-09T03:47:08.679Z,77.41
2018-08-09T03:47:39.850Z,77.03
2018-08-09T03:48:11.045Z,76.94
2018-08-09T03:48:42.234Z,76.56
2018-08-09T03:49:13.408Z,77.21
2018-08-09T03:49:44.574Z,76.82
2018-08-09T03:50:15.807Z,76.93
2018-08-09T03:50:46.985Z,77.82
2018-08-09T03:51:18.164Z,77.28
2018-08-09T03:51:49.399Z,77.88
2018-08-09T03:52:20.632Z,77.38
2018-08-09T03:52:51.824Z,78.12
2018-08-09T03:53:23.043Z,77.47
2018-08-09T03:53:54.215Z,77.21
2018-08-09T03:54:25.447Z,77.58
2018-08-09T03:54:56.666Z,78.07
2018-08-09T03:55:27.902Z,77.97
2018-08-09T03:55:59.026Z,77.89
2018-08-09T03:56:30.207Z,77.21
2018-08-09T03:57:01.344Z,77.07
2018-08-09T03:57:32.520Z,76.99
2018-08-09T03:58:03.701Z,77.04
2018-08-09T03:58:34.929Z,76.90
2018-08-09T03:59:06.064Z,77.42
2018-08-09T03:59:37.334Z,77.37
2018-08-09T04:00:08.532Z,77.32
2018-08-09T04:00:39.661Z,76.79
2018-08-09T04:01:10.853Z,76.81
2018-08-09T04:01:42.029Z,76.81
2018-08-09T04:02:13.203Z,76.72
2018-08-09T04:02:44.384Z,76.75
2018-08-09T04:03:15.591Z,77.03
2018-08-09T04:03:46.827Z,76.62
2018-08-09T04:04:17.953Z,76.99
2018-08-09T04:04:49.170Z,76.95
2018-08-09T04:05:20.347Z,76.42
2018-08-09T04:05:51.585Z,76.30
2018-08-09T04:06:22.773Z,75.62
2018-08-09T04:06:53.957Z,75.82
2018-08-09T04:07:25.148Z,75.50
2018-08-09T04:07:56.371Z,75.86
2018-08-09T04:08:27.556Z,75.38
2018-08-09T04:08:58.771Z,74.24
2018-08-09T04:09:30.020Z,73.53
2018-08-09T04:10:01.188Z,73.16
2018-08-09T04:10:32.354Z,73.23
2018-08-09T04:11:03.488Z,72.14
2018-08-09T04:11:34.717Z,72.16
2018-08-09T04:12:05.988Z,70.57
2018-08-09T04:12:37.117Z,70.81
2018-08-09T04:13:08.298Z,69.93
2018-08-09T04:13:39.423Z,69.19
2018-08-09T04:14:10.634Z,68.80
2018-08-09T04:14:41.760Z,68.23
2018-08-09T04:15:12.910Z,68.28
2018-08-09T04:15:44.073Z,67.71
2018-08-09T04:16:15.258Z,67.16
2018-08-09T04:16:46.445Z,67.04
2018-08-09T04:17:17.634Z,67.37
2018-08-09T04:17:48.763Z,68.29
2018-08-09T04:18:20.011Z,68.33
2018-08-09T04:18:51.197Z,68.60
2018-08-09T04:19:22.396Z,68.53
2018-08-09T04:19:53.632Z,68.53
2018-08-09T04:20:24.851Z,67.79
2018-08-09T04:20:56.080Z,68.24
2018-08-09T04:21:27.243Z,67.97
2018-08-09T04:21:58.456Z,66.70
2018-08-09T04:22:29.656Z,67.09
2018-08-09T04:23:00.859Z,66.32
2018-08-09T04:23:31.991Z,65.57
2018-08-09T04:24:03.200Z,64.46
2018-08-09T04:24:34.339Z,64.42
2018-08-09T04:25:05.533Z,63.40
2018-08-09T04:25:36.663Z,63.16
2018-08-09T04:26:07.796Z,63.43
2018-08-09T04:26:38.963Z,64.00
2018-08-09T04:27:10.137Z,64.46
2018-08-09T04:27:41.309Z,64.17
2018-08-09T04:28:12.437Z,64.91
2018-08-09T04:28:43.558Z,64.48
2018-08-09T04:29:14.733Z,64.51
2018-08-09T04:29:45.906Z,64.78
2018-08-09T04:30:17.087Z,64.28
2018-08-09T04:30:48.259Z,62.71
2018-08-09T04:31:19.467Z,62.52
2018-08-09T04:31:50.589Z,62.09
2018-08-09T04:32:21.736Z,60.97
2018-08-09T04:32:52.970Z,60.52
2018-08-09T04:33:24.100Z,60.38
2018-08-09T04:33:55.223Z,59.60
2018-08-09T04:34:26.408Z,59.10
2018-08-09T04:34:57.692Z,57.66
2018-08-09T04:35:28.919Z,57.52
2018-08-09T04:36:00.056Z,57.04
2018-08-09T04:36:31.236Z,55.73
2018-08-09T04:37:02.366Z,55.65
2018-08-09T04:37:33.502Z,55.01
2018-08-09T04:38:04.698Z,54.50
2018-08-09T04:38:35.984Z,54.46
2018-08-09T04:39:07.133Z,53.49
2018-08-09T04:39:38.388Z,52.64
2018-08-09T04:40:09.532Z,52.59
2018-08-09T04:40:40.768Z,52.44
2018-08-09T04:41:11.956Z,52.00
2018-08-09T04:41:43.148Z,52.34
2018-08-09T04:42:14.288Z,51.73
2018-08-09T04:42:45.495Z,51.88
2018-08-09T04:43:16.635Z,52.15
2018-08-09T04:43:47.889Z,52.05
2018-08-09T04:44:19.024Z,51.34
2018-08-09T04:44:50.174Z,50.84
2018-08-09T04:45:21.424Z,50.52
2018-08-09T04:45:52.575Z,49.96
2018-08-09T04:46:23.704Z,49.50
2018-08-09T04:46:54.948Z,49.22
2018-08-09T04:47:26.201Z,48.60
2018-08-09T04:47:57.372Z,48.52
2018-08-09T04:48:28.552Z,48.38
2018-08-09T04:48:59.739Z,48.35
2018-08-09T04:49:30.857Z,48.24
2018-08-09T04:50:02.032Z,47.39
2018-08-09T04:50:33.209Z,47.12
2018-08-09T04:51:04.340Z,46.79
2018-08-09T04:51:35.511Z,46.72
2018-08-09T04:52:06.703Z,46.34
2018-08-09T04:52:38.102Z,45.79
2018-08-09T04:53:09.232Z,45.85
2018-08-09T04:53:40.415Z,45.64
2018-08-09T04:54:11.604Z,45.20
2018-08-09T04:54:42.730Z,45.18
2018-08-09T04:55:13.850Z,45.07
2018-08-09T04:55:45.038Z,45.26
2018-08-09T04:56:16.169Z,45.48
2018-08-09T04:56:47.392Z,45.43
2018-08-09T04:57:18.635Z,45.58
2018-08-09T04:57:49.768Z,45.29
2018-08-09T04:58:20.960Z,45.52
2018-08-09T04:58:52.089Z,45.62
2018-08-09T04:59:23.284Z,45.42
2018-08-09T04:59:54.573Z,45.06
2018-08-09T05:00:25.804Z,45.42
2018-08-09T05:00:57.001Z,45.33
2018-08-09T05:01:28.124Z,45.78
2018-08-09T05:01:59.254Z,45.52
2018-08-09T05:02:30.438Z,46.14
2018-08-09T05:03:01.637Z,47.48
2018-08-09T05:03:32.827Z,47.74
2018-08-09T05:04:04.060Z,49.08
2018-08-09T05:04:35.203Z,49.91
2018-08-09T05:05:06.381Z,50.51
2018-08-09T05:05:37.572Z,51.32
2018-08-09T05:06:08.763Z,52.72
2018-08-09T05:06:39.937Z,52.96
2018-08-09T05:07:11.132Z,53.33
2018-08-09T05:07:42.330Z,53.90
2018-08-09T05:08:13.465Z,54.98
2018-08-09T05:08:44.596Z,54.45
2018-08-09T05:09:15.713Z,56.12
2018-08-09T05:09:46.836Z,56.50
2018-08-09T05:10:18.440Z,57.12
2018-08-09T05:10:49.595Z,57.08
2018-08-09T05:11:20.766Z,58.24
2018-08-09T05:11:51.935Z,58.32
2018-08-09T05:12:23.059Z,59.24
2018-08-09T05:12:54.241Z,58.73
2018-08-09T05:13:25.481Z,58.26
2018-08-09T05:13:56.681Z,58.21
2018-08-09T05:14:27.872Z,57.74
2018-08-09T05:14:59.004Z,57.75
2018-08-09T05:15:30.166Z,57.08
2018-08-09T05:16:01.466Z,56.41
2018-08-09T05:16:32.557Z,55.95
2018-08-09T05:17:03.756Z,55.63
2018-08-09T05:17:34.905Z,54.64
2018-08-09T05:18:06.045Z,54.17
2018-08-09T05:18:37.247Z,53.58
2018-08-09T05:19:08.415Z,53.11
2018-08-09T05:19:39.543Z,52.43
2018-08-09T05:20:10.704Z,52.24
2018-08-09T05:20:41.896Z,51.69
2018-08-09T05:21:13.080Z,52.15
2018-08-09T05:21:44.337Z,51.19
2018-08-09T05:22:15.502Z,51.63
2018-08-09T05:22:46.694Z,51.25
2018-08-09T05:23:17.815Z,51.22
2018-08-09T05:23:49.030Z,51.21
2018-08-09T05:24:20.152Z,51.18
2018-08-09T05:24:51.359Z,51.02
2018-08-09T05:25:22.583Z,50.69
2018-08-09T05:25:53.758Z,50.40
2018-08-09T05:26:25.045Z,49.86
2018-08-09T05:26:56.264Z,50.00
2018-08-09T05:27:27.410Z,50.11
2018-08-09T05:27:58.578Z,49.58
2018-08-09T05:28:29.720Z,49.39
2018-08-09T05:29:00.890Z,49.26
2018-08-09T05:29:32.089Z,49.24
2018-08-09T05:30:03.208Z,49.16
2018-08-09T05:30:34.369Z,49.03
2018-08-09T05:31:05.594Z,49.27
2018-08-09T05:31:36.763Z,48.99
2018-08-09T05:32:07.881Z,48.05
2018-08-09T05:32:39.000Z,48.06
2018-08-09T05:33:10.124Z,48.13
2018-08-09T05:33:41.317Z,47.37
2018-08-09T05:34:12.519Z,47.43
2018-08-09T05:34:43.692Z,47.90
2018-08-09T05:35:14.901Z,47.52
2018-08-09T05:35:46.090Z,47.27
2018-08-09T05:36:17.229Z,47.38
2018-08-09T05:36:48.477Z,47.61
2018-08-09T05:37:19.661Z,47.55
2018-08-09T05:37:50.911Z,47.24
2018-08-09T05:38:22.069Z,47.24
2018-08-09T05:38:53.249Z,47.34
2018-08-09T05:39:24.452Z,47.93
2018-08-09T05:39:55.579Z,48.30
2018-08-09T05:40:26.804Z,48.29
2018-08-09T05:40:57.931Z,48.61
2018-08-09T05:41:29.137Z,48.79
2018-08-09T05:42:00.285Z,49.20
2018-08-09T05:42:31.518Z,49.46
2018-08-09T05:43:02.692Z,49.25
2018-08-09T05:43:33.822Z,48.82
2018-08-09T05:44:05.004Z,48.87
2018-08-09T05:44:36.217Z,48.36
2018-08-09T05:45:07.477Z,49.02
2018-08-09T05:45:38.722Z,49.77
2018-08-09T05:46:09.918Z,49.59
2018-08-09T05:46:41.047Z,49.84
2018-08-09T05:47:12.184Z,50.23
2018-08-09T05:47:43.349Z,50.03
2018-08-09T05:48:14.473Z,50.04
2018-08-09T05:48:45.649Z,50.03
2018-08-09T05:49:16.836Z,50.14
2018-08-09T05:49:48.019Z,50.11
2018-08-09T05:50:19.191Z,49.65
2018-08-09T05:50:50.417Z,49.48
2018-08-09T05:51:21.547Z,50.30
2018-08-09T05:51:52.749Z,50.42
2018-08-09T05:52:23.964Z,50.75
2018-08-09T05:52:55.214Z,51.35
2018-08-09T05:53:26.564Z,51.42
2018-08-09T05:53:57.975Z,51.38
2018-08-09T05:54:29.182Z,52.22
2018-08-09T05:55:00.365Z,52.00
2018-08-09T05:55:31.541Z,52.14
2018-08-09T05:56:02.737Z,52.21
2018-08-09T05:56:33.892Z,51.83
2018-08-09T05:57:05.042Z,51.69
2018-08-09T05:57:36.191Z,52.18
2018-08-09T05:58:07.385Z,52.61
2018-08-09T05:58:38.567Z,53.02
2018-08-09T05:59:09.755Z,53.05
2018-08-09T05:59:40.902Z,52.49
2018-08-09T06:00:12.042Z,52.95
2018-08-09T06:00:43.257Z,52.78
2018-08-09T06:01:14.522Z,52.27
2018-08-09T06:01:45.715Z,52.98
2018-08-09T06:02:16.918Z,53.81
2018-08-09T06:02:48.115Z,53.78
2018-08-09T06:03:19.325Z,54.13
2018-08-09T06:03:50.459Z,54.43
2018-08-09T06:04:21.601Z,54.69
2018-08-09T06:04:52.823Z,54.27
2018-08-09T06:05:24.016Z,53.58
2018-08-09T06:05:55.137Z,54.05
2018-08-09T06:06:26.327Z,53.55
2018-08-09T06:06:57.508Z,53.09
2018-08-09T06:07:28.700Z,53.64
2018-08-09T06:07:59.864Z,53.25
2018-08-09T06:08:31.046Z,53.51
2018-08-09T06:09:02.189Z,53.42
2018-08-09T06:09:33.311Z,53.10
2018-08-09T06:10:04.454Z,53.71
2018-08-09T06:10:35.610Z,52.56
2018-08-09T06:11:06.784Z,52.38
2018-08-09T06:11:38.025Z,52.02
2018-08-09T06:12:09.184Z,51.48
2018-08-09T06:12:40.315Z,51.74
2018-08-09T06:13:11.451Z,51.10
2018-08-09T06:13:42.578Z,51.17
2018-08-09T06:14:13.711Z,51.34
2018-08-09T06:14:44.901Z,51.28
2018-08-09T06:15:16.147Z,51.32
2018-08-09T06:15:47.372Z,51.66
2018-08-09T06:16:18.671Z,51.06
2018-08-09T06:16:49.923Z,51.47
2018-08-09T06:17:21.104Z,51.90
2018-08-09T06:17:52.263Z,51.55
2018-08-09T06:18:23.432Z,51.96
2018-08-09T06:18:54.639Z,52.08
2018-08-09T06:19:25.769Z,52.12
2018-08-09T06:19:56.962Z,51.54
2018-08-09T06:20:28.153Z,52.69
2018-08-09T06:20:59.398Z,52.45
2018-08-09T06:21:30.596Z,52.51
2018-08-09T06:22:01.798Z,52.38
2018-08-09T06:22:32.925Z,52.81
2018-08-09T06:23:04.123Z,53.15
2018-08-09T06:23:35.313Z,53.25
2018-08-09T06:24:06.445Z,52.71
2018-08-09T06:24:37.573Z,53.35
2018-08-09T06:25:08.771Z,53.58
2018-08-09T06:25:39.924Z,53.60
2018-08-09T06:26:11.097Z,54.22
2018-08-09T06:26:42.384Z,54.31
2018-08-09T06:27:13.578Z,54.47
2018-08-09T06:27:44.756Z,53.11
2018-08-09T06:28:15.988Z,54.68
2018-08-09T06:28:47.263Z,54.44
2018-08-09T06:29:18.325Z,53.86
2018-08-09T06:29:49.579Z,54.11
2018-08-09T06:30:20.785Z,54.34
2018-08-09T06:30:52.021Z,53.87
2018-08-09T06:31:23.266Z,53.69
2018-08-09T06:31:54.399Z,53.62
2018-08-09T06:32:25.522Z,53.97
2018-08-09T06:32:56.788Z,54.17
2018-08-09T06:33:27.941Z,54.50
2018-08-09T06:33:59.098Z,54.68
2018-08-09T06:34:30.228Z,55.03
2018-08-09T06:35:01.360Z,54.85
2018-08-09T06:35:32.487Z,54.88
2018-08-09T06:36:03.760Z,54.52
2018-08-09T06:36:34.899Z,54.51
2018-08-09T06:37:06.023Z,54.13
2018-08-09T06:37:37.184Z,53.99
2018-08-09T06:38:08.486Z,54.01
2018-08-09T06:38:39.683Z,53.77
2018-08-09T06:39:10.892Z,53.90
2018-08-09T06:39:42.068Z,54.19
2018-08-09T06:40:13.190Z,53.97
2018-08-09T06:40:44.376Z,54.02
2018-08-09T06:41:15.569Z,54.13